sensor_id;sensor_type;location;lat;lon;timestamp;temperature;humidity
48604;DHT22;32708;51.212;6.788;2023-11-19T00:01:35;11.30;99.90
48604;DHT22;32708;51.212;6.788;2023-11-19T00:04:01;11.20;99.90
48604;DHT22;32708;51.212;6.788;2023-11-19T00:06:30;11.20;99.90
48604;DHT22;32708;51.212;6.788;2023-11-19T00:08:57;11.30;99.90
48604;DHT22;32708;51.212;6.788;2023-11-19T00:11:23;11.30;99.90
48604;DHT22;32708;51.212;6.788;2023-11-19T00:13:49;11.40;99.90
48604;DHT22;32708;51.212;6.788;2023-11-19T00:16:16;11.40;99.90
48604;DHT22;32708;51.212;6.788;2023-11-19T00:18:42;11.40;99.90
48604;DHT22;32708;51.212;6.788;2023-11-19T00:21:08;11.50;99.90
48604;DHT22;32708;51.212;6.788;2023-11-19T00:23:36;11.50;99.90
48604;DHT22;32708;51.212;6.788;2023-11-19T00:26:02;11.50;99.90
48604;DHT22;32708;51.212;6.788;2023-11-19T00:28:32;11.50;99.90
48604;DHT22;32708;51.212;6.788;2023-11-19T00:31:00;11.60;99.90
48604;DHT22;32708;51.212;6.788;2023-11-19T00:33:36;11.60;99.90
48604;DHT22;32708;51.212;6.788;2023-11-19T00:36:06;11.70;99.90
48604;DHT22;32708;51.212;6.788;2023-11-19T00:38:33;11.90;99.90
48604;DHT22;32708;51.212;6.788;2023-11-19T00:41:02;11.80;99.90
48604;DHT22;32708;51.212;6.788;2023-11-19T00:43:29;11.90;99.90
48604;DHT22;32708;51.212;6.788;2023-11-19T00:45:55;11.70;99.90
48604;DHT22;32708;51.212;6.788;2023-11-19T00:48:21;11.90;99.90
48604;DHT22;32708;51.212;6.788;2023-11-19T00:50:47;12.00;99.90
48604;DHT22;32708;51.212;6.788;2023-11-19T00:53:14;12.20;99.90
48604;DHT22;32708;51.212;6.788;2023-11-19T00:55:40;12.30;99.90
48604;DHT22;32708;51.212;6.788;2023-11-19T00:58:06;12.40;99.90
48604;DHT22;32708;51.212;6.788;2023-11-19T01:00:32;12.40;99.90
48604;DHT22;32708;51.212;6.788;2023-11-19T01:02:59;12.50;99.90
48604;DHT22;32708;51.212;6.788;2023-11-19T01:05:25;12.50;99.90
48604;DHT22;32708;51.212;6.788;2023-11-19T01:07:52;12.50;99.90
48604;DHT22;32708;51.212;6.788;2023-11-19T01:10:20;12.60;99.90
48604;DHT22;32708;51.212;6.788;2023-11-19T01:12:46;12.60;99.90
48604;DHT22;32708;51.212;6.788;2023-11-19T01:15:13;12.70;99.90
48604;DHT22;32708;51.212;6.788;2023-11-19T01:17:39;12.70;99.90
48604;DHT22;32708;51.212;6.788;2023-11-19T01:20:05;12.60;99.90
48604;DHT22;32708;51.212;6.788;2023-11-19T01:22:33;12.60;99.90
48604;DHT22;32708;51.212;6.788;2023-11-19T01:24:59;12.60;99.90
48604;DHT22;32708;51.212;6.788;2023-11-19T01:27:25;12.70;99.90
48604;DHT22;32708;51.212;6.788;2023-11-19T01:29:51;12.70;99.90
48604;DHT22;32708;51.212;6.788;2023-11-19T01:32:18;12.70;99.90
48604;DHT22;32708;51.212;6.788;2023-11-19T01:34:44;12.80;99.90
48604;DHT22;32708;51.212;6.788;2023-11-19T01:37:10;12.80;99.90
48604;DHT22;32708;51.212;6.788;2023-11-19T01:39:38;12.80;99.90
48604;DHT22;32708;51.212;6.788;2023-11-19T01:42:04;12.80;99.90
48604;DHT22;32708;51.212;6.788;2023-11-19T01:44:31;12.80;99.90
48604;DHT22;32708;51.212;6.788;2023-11-19T01:46:58;12.80;99.90
48604;DHT22;32708;51.212;6.788;2023-11-19T01:49:25;12.90;99.90
48604;DHT22;32708;51.212;6.788;2023-11-19T01:51:52;12.90;99.90
48604;DHT22;32708;51.212;6.788;2023-11-19T01:54:18;12.90;99.90
48604;DHT22;32708;51.212;6.788;2023-11-19T01:56:44;12.90;99.90
48604;DHT22;32708;51.212;6.788;2023-11-19T01:59:12;12.90;99.90
48604;DHT22;32708;51.212;6.788;2023-11-19T02:01:41;12.90;99.90
48604;DHT22;32708;51.212;6.788;2023-11-19T02:04:08;12.90;99.90
48604;DHT22;32708;51.212;6.788;2023-11-19T02:06:38;12.90;99.90
48604;DHT22;32708;51.212;6.788;2023-11-19T02:09:06;12.90;99.90
48604;DHT22;32708;51.212;6.788;2023-11-19T02:11:34;13.00;99.90
48604;DHT22;32708;51.212;6.788;2023-11-19T02:14:01;13.00;99.90
48604;DHT22;32708;51.212;6.788;2023-11-19T02:16:29;13.00;99.90
48604;DHT22;32708;51.212;6.788;2023-11-19T02:18:55;13.00;99.90
48604;DHT22;32708;51.212;6.788;2023-11-19T02:21:21;13.00;99.90
48604;DHT22;32708;51.212;6.788;2023-11-19T02:23:47;13.10;99.90
48604;DHT22;32708;51.212;6.788;2023-11-19T02:26:31;13.00;99.90
48604;DHT22;32708;51.212;6.788;2023-11-19T02:29:01;13.00;99.90
48604;DHT22;32708;51.212;6.788;2023-11-19T02:31:28;13.00;99.90
48604;DHT22;32708;51.212;6.788;2023-11-19T02:33:55;13.00;99.90
48604;DHT22;32708;51.212;6.788;2023-11-19T02:36:21;13.10;99.90
48604;DHT22;32708;51.212;6.788;2023-11-19T02:38:47;13.10;99.90
48604;DHT22;32708;51.212;6.788;2023-11-19T02:41:14;13.10;99.90
48604;DHT22;32708;51.212;6.788;2023-11-19T02:43:40;13.10;99.90
48604;DHT22;32708;51.212;6.788;2023-11-19T02:46:06;13.10;99.90
48604;DHT22;32708;51.212;6.788;2023-11-19T02:48:35;13.10;99.90
48604;DHT22;32708;51.212;6.788;2023-11-19T02:51:02;13.10;99.90
48604;DHT22;32708;51.212;6.788;2023-11-19T02:53:30;13.00;99.90
48604;DHT22;32708;51.212;6.788;2023-11-19T02:55:57;13.10;99.90
48604;DHT22;32708;51.212;6.788;2023-11-19T02:58:43;13.00;99.90
48604;DHT22;32708;51.212;6.788;2023-11-19T03:01:11;13.10;99.90
48604;DHT22;32708;51.212;6.788;2023-11-19T03:03:49;13.10;99.90
48604;DHT22;32708;51.212;6.788;2023-11-19T03:06:21;13.20;99.90
48604;DHT22;32708;51.212;6.788;2023-11-19T03:08:47;13.10;99.90
48604;DHT22;32708;51.212;6.788;2023-11-19T03:11:14;13.20;99.90
48604;DHT22;32708;51.212;6.788;2023-11-19T03:13:40;13.10;99.90
48604;DHT22;32708;51.212;6.788;2023-11-19T03:16:07;13.20;99.90
48604;DHT22;32708;51.212;6.788;2023-11-19T03:18:33;13.20;99.90
48604;DHT22;32708;51.212;6.788;2023-11-19T03:20:59;13.50;99.90
48604;DHT22;32708;51.212;6.788;2023-11-19T03:23:25;13.30;99.90
48604;DHT22;32708;51.212;6.788;2023-11-19T03:25:54;13.30;99.90
48604;DHT22;32708;51.212;6.788;2023-11-19T03:28:21;13.40;99.90
48604;DHT22;32708;51.212;6.788;2023-11-19T03:30:47;13.30;99.90
48604;DHT22;32708;51.212;6.788;2023-11-19T03:33:13;13.30;99.90
48604;DHT22;32708;51.212;6.788;2023-11-19T03:35:40;13.30;99.90
48604;DHT22;32708;51.212;6.788;2023-11-19T03:38:07;13.30;99.90
48604;DHT22;32708;51.212;6.788;2023-11-19T03:40:33;13.30;99.90
48604;DHT22;32708;51.212;6.788;2023-11-19T03:42:59;13.30;99.90
48604;DHT22;32708;51.212;6.788;2023-11-19T03:45:25;13.40;99.90
48604;DHT22;32708;51.212;6.788;2023-11-19T03:47:51;13.40;99.90
48604;DHT22;32708;51.212;6.788;2023-11-19T03:50:18;13.40;99.90
48604;DHT22;32708;51.212;6.788;2023-11-19T03:52:46;13.40;99.90
48604;DHT22;32708;51.212;6.788;2023-11-19T03:55:14;13.40;99.90
48604;DHT22;32708;51.212;6.788;2023-11-19T03:57:40;13.40;99.90
48604;DHT22;32708;51.212;6.788;2023-11-19T04:00:06;13.40;99.90
48604;DHT22;32708;51.212;6.788;2023-11-19T04:02:40;13.40;99.90
48604;DHT22;32708;51.212;6.788;2023-11-19T04:05:07;13.40;99.90
48604;DHT22;32708;51.212;6.788;2023-11-19T04:07:33;13.40;99.90
48604;DHT22;32708;51.212;6.788;2023-11-19T04:10:00;13.40;99.90
48604;DHT22;32708;51.212;6.788;2023-11-19T04:12:26;13.40;99.90
48604;DHT22;32708;51.212;6.788;2023-11-19T04:14:52;13.40;99.90
48604;DHT22;32708;51.212;6.788;2023-11-19T04:17:18;13.30;99.90
48604;DHT22;32708;51.212;6.788;2023-11-19T04:19:44;13.30;99.90
48604;DHT22;32708;51.212;6.788;2023-11-19T04:22:10;13.30;99.90
48604;DHT22;32708;51.212;6.788;2023-11-19T04:24:37;13.30;99.90
48604;DHT22;32708;51.212;6.788;2023-11-19T04:27:05;13.20;99.90
48604;DHT22;32708;51.212;6.788;2023-11-19T04:29:32;13.20;99.90
48604;DHT22;32708;51.212;6.788;2023-11-19T04:31:58;13.20;99.90
48604;DHT22;32708;51.212;6.788;2023-11-19T04:34:27;13.20;99.90
48604;DHT22;32708;51.212;6.788;2023-11-19T04:36:53;13.20;99.90
48604;DHT22;32708;51.212;6.788;2023-11-19T04:39:20;13.20;99.90
48604;DHT22;32708;51.212;6.788;2023-11-19T04:41:47;13.20;99.90
48604;DHT22;32708;51.212;6.788;2023-11-19T04:44:18;13.10;99.90
48604;DHT22;32708;51.212;6.788;2023-11-19T04:46:45;13.10;99.90
48604;DHT22;32708;51.212;6.788;2023-11-19T04:49:13;13.10;99.90
48604;DHT22;32708;51.212;6.788;2023-11-19T04:51:45;13.00;99.90
48604;DHT22;32708;51.212;6.788;2023-11-19T04:54:14;12.90;99.90
48604;DHT22;32708;51.212;6.788;2023-11-19T04:56:40;12.80;99.90
48604;DHT22;32708;51.212;6.788;2023-11-19T04:59:11;12.90;99.90
48604;DHT22;32708;51.212;6.788;2023-11-19T05:01:37;13.00;99.90
48604;DHT22;32708;51.212;6.788;2023-11-19T05:04:03;12.90;99.90
48604;DHT22;32708;51.212;6.788;2023-11-19T05:06:30;12.90;99.90
48604;DHT22;32708;51.212;6.788;2023-11-19T05:09:00;12.90;99.90
48604;DHT22;32708;51.212;6.788;2023-11-19T05:11:35;12.70;99.90
48604;DHT22;32708;51.212;6.788;2023-11-19T05:14:05;12.80;99.90
48604;DHT22;32708;51.212;6.788;2023-11-19T05:16:31;12.80;99.90
48604;DHT22;32708;51.212;6.788;2023-11-19T05:18:58;12.80;99.90
48604;DHT22;32708;51.212;6.788;2023-11-19T05:21:24;12.90;99.90
48604;DHT22;32708;51.212;6.788;2023-11-19T05:23:50;12.80;99.90
48604;DHT22;32708;51.212;6.788;2023-11-19T05:26:21;12.80;99.90
48604;DHT22;32708;51.212;6.788;2023-11-19T05:28:49;12.80;99.90
48604;DHT22;32708;51.212;6.788;2023-11-19T05:31:18;12.80;99.90
48604;DHT22;32708;51.212;6.788;2023-11-19T05:33:44;12.70;99.90
48604;DHT22;32708;51.212;6.788;2023-11-19T05:36:12;12.70;99.90
48604;DHT22;32708;51.212;6.788;2023-11-19T05:38:39;12.80;99.90
48604;DHT22;32708;51.212;6.788;2023-11-19T05:41:06;12.80;99.90
48604;DHT22;32708;51.212;6.788;2023-11-19T05:43:32;12.90;99.90
48604;DHT22;32708;51.212;6.788;2023-11-19T05:45:59;12.70;99.90
48604;DHT22;32708;51.212;6.788;2023-11-19T05:48:27;12.80;99.90
48604;DHT22;32708;51.212;6.788;2023-11-19T05:50:53;12.70;99.90
48604;DHT22;32708;51.212;6.788;2023-11-19T05:53:20;12.80;99.90
48604;DHT22;32708;51.212;6.788;2023-11-19T05:55:47;12.80;99.90
48604;DHT22;32708;51.212;6.788;2023-11-19T05:58:27;12.80;99.90
48604;DHT22;32708;51.212;6.788;2023-11-19T06:00:58;12.90;99.90
48604;DHT22;32708;51.212;6.788;2023-11-19T06:03:26;12.90;99.90
48604;DHT22;32708;51.212;6.788;2023-11-19T06:05:52;12.80;99.90
48604;DHT22;32708;51.212;6.788;2023-11-19T06:08:20;12.80;99.90
48604;DHT22;32708;51.212;6.788;2023-11-19T06:10:47;12.80;99.90
48604;DHT22;32708;51.212;6.788;2023-11-19T06:13:15;12.70;99.90
48604;DHT22;32708;51.212;6.788;2023-11-19T06:15:45;12.70;99.90
48604;DHT22;32708;51.212;6.788;2023-11-19T06:18:11;12.70;99.90
48604;DHT22;32708;51.212;6.788;2023-11-19T06:20:38;12.60;99.90
48604;DHT22;32708;51.212;6.788;2023-11-19T06:23:05;12.70;99.90
48604;DHT22;32708;51.212;6.788;2023-11-19T06:25:31;12.60;99.90
48604;DHT22;32708;51.212;6.788;2023-11-19T06:27:57;12.60;99.90
48604;DHT22;32708;51.212;6.788;2023-11-19T06:30:23;12.50;99.90
48604;DHT22;32708;51.212;6.788;2023-11-19T06:32:50;12.60;99.90
48604;DHT22;32708;51.212;6.788;2023-11-19T06:35:17;12.50;99.90
48604;DHT22;32708;51.212;6.788;2023-11-19T06:37:46;12.60;99.90
48604;DHT22;32708;51.212;6.788;2023-11-19T06:40:12;12.60;99.90
48604;DHT22;32708;51.212;6.788;2023-11-19T06:42:38;12.50;99.90
48604;DHT22;32708;51.212;6.788;2023-11-19T06:45:05;12.70;99.90
48604;DHT22;32708;51.212;6.788;2023-11-19T06:47:32;12.50;99.90
48604;DHT22;32708;51.212;6.788;2023-11-19T06:49:58;12.40;99.90
48604;DHT22;32708;51.212;6.788;2023-11-19T06:52:24;12.40;99.90
48604;DHT22;32708;51.212;6.788;2023-11-19T06:54:51;12.40;99.90
48604;DHT22;32708;51.212;6.788;2023-11-19T06:57:17;12.60;99.90
48604;DHT22;32708;51.212;6.788;2023-11-19T06:59:46;12.40;99.90
48604;DHT22;32708;51.212;6.788;2023-11-19T07:02:12;12.30;99.90
48604;DHT22;32708;51.212;6.788;2023-11-19T07:04:38;12.30;99.90
48604;DHT22;32708;51.212;6.788;2023-11-19T07:07:05;12.30;99.90
48604;DHT22;32708;51.212;6.788;2023-11-19T07:09:32;12.20;99.90
48604;DHT22;32708;51.212;6.788;2023-11-19T07:11:59;12.20;99.90
48604;DHT22;32708;51.212;6.788;2023-11-19T07:14:25;12.20;99.90
48604;DHT22;32708;51.212;6.788;2023-11-19T07:16:52;12.20;99.90
48604;DHT22;32708;51.212;6.788;2023-11-19T07:19:19;12.20;99.90
48604;DHT22;32708;51.212;6.788;2023-11-19T07:21:45;12.20;99.90
48604;DHT22;32708;51.212;6.788;2023-11-19T07:24:12;12.20;99.90
48604;DHT22;32708;51.212;6.788;2023-11-19T07:26:44;12.20;99.90
48604;DHT22;32708;51.212;6.788;2023-11-19T07:29:16;12.20;99.90
48604;DHT22;32708;51.212;6.788;2023-11-19T07:31:45;12.10;99.90
48604;DHT22;32708;51.212;6.788;2023-11-19T07:34:11;12.20;99.90
48604;DHT22;32708;51.212;6.788;2023-11-19T07:36:38;12.20;99.90
48604;DHT22;32708;51.212;6.788;2023-11-19T07:39:04;12.20;99.90
48604;DHT22;32708;51.212;6.788;2023-11-19T07:41:31;12.30;99.90
48604;DHT22;32708;51.212;6.788;2023-11-19T07:43:58;12.30;99.90
48604;DHT22;32708;51.212;6.788;2023-11-19T07:46:24;12.40;99.90
48604;DHT22;32708;51.212;6.788;2023-11-19T07:48:51;12.40;99.90
48604;DHT22;32708;51.212;6.788;2023-11-19T07:51:18;12.40;99.90
48604;DHT22;32708;51.212;6.788;2023-11-19T07:53:44;12.40;99.90
48604;DHT22;32708;51.212;6.788;2023-11-19T07:56:10;12.40;99.90
48604;DHT22;32708;51.212;6.788;2023-11-19T07:58:36;12.40;99.90
48604;DHT22;32708;51.212;6.788;2023-11-19T08:01:03;12.40;99.90
48604;DHT22;32708;51.212;6.788;2023-11-19T08:03:29;12.40;99.90
48604;DHT22;32708;51.212;6.788;2023-11-19T08:05:56;12.50;99.90
48604;DHT22;32708;51.212;6.788;2023-11-19T08:08:22;12.40;99.90
48604;DHT22;32708;51.212;6.788;2023-11-19T08:10:49;12.40;99.90
48604;DHT22;32708;51.212;6.788;2023-11-19T08:13:18;12.50;99.90
48604;DHT22;32708;51.212;6.788;2023-11-19T08:15:45;12.40;99.90
48604;DHT22;32708;51.212;6.788;2023-11-19T08:18:13;12.50;99.90
48604;DHT22;32708;51.212;6.788;2023-11-19T08:20:39;12.50;99.90
48604;DHT22;32708;51.212;6.788;2023-11-19T08:23:05;12.60;99.90
48604;DHT22;32708;51.212;6.788;2023-11-19T08:25:31;12.70;99.90
48604;DHT22;32708;51.212;6.788;2023-11-19T08:27:59;12.70;99.90
48604;DHT22;32708;51.212;6.788;2023-11-19T08:30:26;12.60;99.90
48604;DHT22;32708;51.212;6.788;2023-11-19T08:32:53;12.80;99.90
48604;DHT22;32708;51.212;6.788;2023-11-19T08:35:19;12.80;99.90
48604;DHT22;32708;51.212;6.788;2023-11-19T08:37:45;12.90;99.90
48604;DHT22;32708;51.212;6.788;2023-11-19T08:40:11;12.90;99.90
48604;DHT22;32708;51.212;6.788;2023-11-19T08:42:42;12.80;99.90
48604;DHT22;32708;51.212;6.788;2023-11-19T08:45:09;12.90;99.90
48604;DHT22;32708;51.212;6.788;2023-11-19T08:47:39;12.80;99.90
48604;DHT22;32708;51.212;6.788;2023-11-19T08:50:07;12.90;99.90
48604;DHT22;32708;51.212;6.788;2023-11-19T08:52:34;13.00;99.90
48604;DHT22;32708;51.212;6.788;2023-11-19T08:55:00;13.10;99.90
48604;DHT22;32708;51.212;6.788;2023-11-19T08:57:27;13.20;99.90
48604;DHT22;32708;51.212;6.788;2023-11-19T08:59:53;13.20;99.90
48604;DHT22;32708;51.212;6.788;2023-11-19T09:02:19;13.20;99.90
48604;DHT22;32708;51.212;6.788;2023-11-19T09:04:45;13.20;99.90
48604;DHT22;32708;51.212;6.788;2023-11-19T09:07:12;13.10;99.90
48604;DHT22;32708;51.212;6.788;2023-11-19T09:09:38;13.10;99.90
48604;DHT22;32708;51.212;6.788;2023-11-19T09:12:04;13.10;99.90
48604;DHT22;32708;51.212;6.788;2023-11-19T09:14:31;13.10;99.90
48604;DHT22;32708;51.212;6.788;2023-11-19T09:16:58;13.10;99.90
48604;DHT22;32708;51.212;6.788;2023-11-19T09:19:24;13.20;99.90
48604;DHT22;32708;51.212;6.788;2023-11-19T09:21:53;13.30;99.90
48604;DHT22;32708;51.212;6.788;2023-11-19T09:24:20;13.20;99.90
48604;DHT22;32708;51.212;6.788;2023-11-19T09:26:47;13.20;99.90
48604;DHT22;32708;51.212;6.788;2023-11-19T09:29:13;13.30;99.90
48604;DHT22;32708;51.212;6.788;2023-11-19T09:31:40;13.40;99.90
48604;DHT22;32708;51.212;6.788;2023-11-19T09:34:08;13.50;99.90
48604;DHT22;32708;51.212;6.788;2023-11-19T09:36:35;13.60;99.90
48604;DHT22;32708;51.212;6.788;2023-11-19T09:39:02;13.80;99.90
48604;DHT22;32708;51.212;6.788;2023-11-19T09:41:30;13.80;99.90
48604;DHT22;32708;51.212;6.788;2023-11-19T09:43:58;13.70;99.90
48604;DHT22;32708;51.212;6.788;2023-11-19T09:46:26;13.80;99.90
48604;DHT22;32708;51.212;6.788;2023-11-19T09:48:56;13.60;99.90
48604;DHT22;32708;51.212;6.788;2023-11-19T09:51:25;13.50;99.90
48604;DHT22;32708;51.212;6.788;2023-11-19T09:53:52;13.50;99.90
48604;DHT22;32708;51.212;6.788;2023-11-19T09:56:18;13.50;99.90
48604;DHT22;32708;51.212;6.788;2023-11-19T09:58:45;13.60;99.90
48604;DHT22;32708;51.212;6.788;2023-11-19T10:01:12;13.70;99.90
48604;DHT22;32708;51.212;6.788;2023-11-19T10:03:41;13.70;99.90
48604;DHT22;32708;51.212;6.788;2023-11-19T10:06:10;13.60;99.90
48604;DHT22;32708;51.212;6.788;2023-11-19T10:08:40;13.80;99.90
48604;DHT22;32708;51.212;6.788;2023-11-19T10:11:07;13.70;99.90
48604;DHT22;32708;51.212;6.788;2023-11-19T10:13:37;13.80;99.90
48604;DHT22;32708;51.212;6.788;2023-11-19T10:16:13;13.80;99.90
48604;DHT22;32708;51.212;6.788;2023-11-19T10:18:48;13.90;99.90
48604;DHT22;32708;51.212;6.788;2023-11-19T10:21:22;13.80;99.90
48604;DHT22;32708;51.212;6.788;2023-11-19T10:23:51;14.00;99.90
48604;DHT22;32708;51.212;6.788;2023-11-19T10:26:19;14.10;99.90
48604;DHT22;32708;51.212;6.788;2023-11-19T10:28:47;14.00;99.90
48604;DHT22;32708;51.212;6.788;2023-11-19T10:31:15;14.00;99.90
48604;DHT22;32708;51.212;6.788;2023-11-19T10:33:43;14.00;99.90
48604;DHT22;32708;51.212;6.788;2023-11-19T10:36:14;14.20;99.90
48604;DHT22;32708;51.212;6.788;2023-11-19T10:38:41;14.30;99.90
48604;DHT22;32708;51.212;6.788;2023-11-19T10:41:31;14.10;99.90
48604;DHT22;32708;51.212;6.788;2023-11-19T10:43:59;14.10;99.90
48604;DHT22;32708;51.212;6.788;2023-11-19T10:46:42;14.10;99.90
48604;DHT22;32708;51.212;6.788;2023-11-19T10:49:10;14.20;99.90
48604;DHT22;32708;51.212;6.788;2023-11-19T10:51:45;14.20;99.90
48604;DHT22;32708;51.212;6.788;2023-11-19T10:54:19;14.20;99.90
48604;DHT22;32708;51.212;6.788;2023-11-19T10:56:55;14.40;99.90
48604;DHT22;32708;51.212;6.788;2023-11-19T10:59:29;14.30;99.90
48604;DHT22;32708;51.212;6.788;2023-11-19T11:02:03;14.20;99.90
48604;DHT22;32708;51.212;6.788;2023-11-19T11:04:40;14.20;99.90
48604;DHT22;32708;51.212;6.788;2023-11-19T11:07:14;14.30;99.90
48604;DHT22;32708;51.212;6.788;2023-11-19T11:09:47;14.30;99.90
48604;DHT22;32708;51.212;6.788;2023-11-19T11:12:18;14.10;99.90
48604;DHT22;32708;51.212;6.788;2023-11-19T11:14:50;14.20;99.90
48604;DHT22;32708;51.212;6.788;2023-11-19T11:17:27;14.20;99.90
48604;DHT22;32708;51.212;6.788;2023-11-19T11:20:04;13.90;99.90
48604;DHT22;32708;51.212;6.788;2023-11-19T11:22:56;14.00;99.90
48604;DHT22;32708;51.212;6.788;2023-11-19T11:25:54;14.00;99.90
48604;DHT22;32708;51.212;6.788;2023-11-19T11:31:36;14.30;99.90
48604;DHT22;32708;51.212;6.788;2023-11-19T11:39:36;14.00;99.90
48604;DHT22;32708;51.212;6.788;2023-11-19T11:45:06;14.10;99.90
48604;DHT22;32708;51.212;6.788;2023-11-19T11:50:17;14.10;99.90
48604;DHT22;32708;51.212;6.788;2023-11-19T11:55:51;14.10;99.90
48604;DHT22;32708;51.212;6.788;2023-11-19T11:58:35;14.20;99.90
48604;DHT22;32708;51.212;6.788;2023-11-19T12:01:04;14.20;99.90
48604;DHT22;32708;51.212;6.788;2023-11-19T12:03:37;14.30;99.90
48604;DHT22;32708;51.212;6.788;2023-11-19T12:06:05;14.40;99.90
48604;DHT22;32708;51.212;6.788;2023-11-19T12:08:37;14.50;99.90
48604;DHT22;32708;51.212;6.788;2023-11-19T12:11:05;14.60;99.90
48604;DHT22;32708;51.212;6.788;2023-11-19T12:13:57;14.50;99.70
48604;DHT22;32708;51.212;6.788;2023-11-19T12:16:29;14.50;97.60
48604;DHT22;32708;51.212;6.788;2023-11-19T12:18:56;14.60;97.50
48604;DHT22;32708;51.212;6.788;2023-11-19T12:21:38;14.50;99.00
48604;DHT22;32708;51.212;6.788;2023-11-19T12:24:06;14.60;97.10
48604;DHT22;32708;51.212;6.788;2023-11-19T12:26:37;14.50;97.30
48604;DHT22;32708;51.212;6.788;2023-11-19T12:29:04;14.60;97.90
48604;DHT22;32708;51.212;6.788;2023-11-19T12:31:33;14.50;99.90
48604;DHT22;32708;51.212;6.788;2023-11-19T12:34:07;14.50;99.90
48604;DHT22;32708;51.212;6.788;2023-11-19T12:36:38;14.50;99.90
48604;DHT22;32708;51.212;6.788;2023-11-19T12:39:09;14.40;99.90
48604;DHT22;32708;51.212;6.788;2023-11-19T12:41:51;14.30;99.90
48604;DHT22;32708;51.212;6.788;2023-11-19T12:44:18;14.10;99.90
48604;DHT22;32708;51.212;6.788;2023-11-19T12:46:45;14.00;99.90
48604;DHT22;32708;51.212;6.788;2023-11-19T12:49:14;13.80;99.90
48604;DHT22;32708;51.212;6.788;2023-11-19T12:51:40;13.60;99.90
48604;DHT22;32708;51.212;6.788;2023-11-19T12:54:07;13.40;99.90
48604;DHT22;32708;51.212;6.788;2023-11-19T12:56:33;13.50;99.90
48604;DHT22;32708;51.212;6.788;2023-11-19T12:59:11;13.50;99.90
48604;DHT22;32708;51.212;6.788;2023-11-19T13:01:38;13.70;99.90
48604;DHT22;32708;51.212;6.788;2023-11-19T13:04:29;13.80;99.90
48604;DHT22;32708;51.212;6.788;2023-11-19T13:06:59;13.80;99.90
48604;DHT22;32708;51.212;6.788;2023-11-19T13:09:27;13.80;99.90
48604;DHT22;32708;51.212;6.788;2023-11-19T13:11:55;13.70;99.90
48604;DHT22;32708;51.212;6.788;2023-11-19T13:14:23;13.80;99.90
48604;DHT22;32708;51.212;6.788;2023-11-19T13:16:49;14.00;99.90
48604;DHT22;32708;51.212;6.788;2023-11-19T13:19:18;13.90;99.90
48604;DHT22;32708;51.212;6.788;2023-11-19T13:21:45;13.80;99.90
48604;DHT22;32708;51.212;6.788;2023-11-19T13:24:14;13.90;99.90
48604;DHT22;32708;51.212;6.788;2023-11-19T13:26:55;14.00;99.90
48604;DHT22;32708;51.212;6.788;2023-11-19T13:33:46;13.90;99.90
48604;DHT22;32708;51.212;6.788;2023-11-19T13:37:18;13.90;99.90
48604;DHT22;32708;51.212;6.788;2023-11-19T13:41:09;14.00;99.90
48604;DHT22;32708;51.212;6.788;2023-11-19T13:44:35;13.90;99.90
48604;DHT22;32708;51.212;6.788;2023-11-19T13:48:05;13.90;99.90
48604;DHT22;32708;51.212;6.788;2023-11-19T13:51:05;13.80;99.90
48604;DHT22;32708;51.212;6.788;2023-11-19T14:02:54;13.90;99.90
48604;DHT22;32708;51.212;6.788;2023-11-19T14:06:23;13.80;99.90
48604;DHT22;32708;51.212;6.788;2023-11-19T14:14:54;13.60;99.90
48604;DHT22;32708;51.212;6.788;2023-11-19T14:22:51;13.40;99.90
48604;DHT22;32708;51.212;6.788;2023-11-19T14:26:57;13.60;99.90
48604;DHT22;32708;51.212;6.788;2023-11-19T14:30:33;13.40;99.90
48604;DHT22;32708;51.212;6.788;2023-11-19T14:34:07;13.30;99.90
48604;DHT22;32708;51.212;6.788;2023-11-19T14:37:53;13.10;99.90
48604;DHT22;32708;51.212;6.788;2023-11-19T14:41:41;13.00;99.90
48604;DHT22;32708;51.212;6.788;2023-11-19T14:46:13;12.40;99.90
48604;DHT22;32708;51.212;6.788;2023-11-19T14:58:03;12.40;99.90
48604;DHT22;32708;51.212;6.788;2023-11-19T15:01:25;12.50;99.90
48604;DHT22;32708;51.212;6.788;2023-11-19T15:08:00;12.70;99.90
48604;DHT22;32708;51.212;6.788;2023-11-19T15:11:47;12.60;99.90
48604;DHT22;32708;51.212;6.788;2023-11-19T15:30:08;12.30;99.90
48604;DHT22;32708;51.212;6.788;2023-11-19T15:33:39;12.30;99.90
48604;DHT22;32708;51.212;6.788;2023-11-19T15:36:50;12.30;99.90
48604;DHT22;32708;51.212;6.788;2023-11-19T15:40:27;12.30;99.90
48604;DHT22;32708;51.212;6.788;2023-11-19T15:43:34;12.30;99.90
48604;DHT22;32708;51.212;6.788;2023-11-19T15:46:34;12.40;99.90
48604;DHT22;32708;51.212;6.788;2023-11-19T15:49:50;12.30;99.90
48604;DHT22;32708;51.212;6.788;2023-11-19T15:53:21;12.30;99.90
48604;DHT22;32708;51.212;6.788;2023-11-19T15:56:20;12.20;99.90
48604;DHT22;32708;51.212;6.788;2023-11-19T15:58:56;12.30;99.90
48604;DHT22;32708;51.212;6.788;2023-11-19T16:01:34;12.30;99.90
48604;DHT22;32708;51.212;6.788;2023-11-19T16:04:14;12.40;99.90
48604;DHT22;32708;51.212;6.788;2023-11-19T16:06:46;12.40;99.90
48604;DHT22;32708;51.212;6.788;2023-11-19T16:09:12;12.40;99.90
48604;DHT22;32708;51.212;6.788;2023-11-19T16:11:58;12.40;99.90
48604;DHT22;32708;51.212;6.788;2023-11-19T16:19:14;12.60;99.90
48604;DHT22;32708;51.212;6.788;2023-11-19T16:22:33;12.60;99.90
48604;DHT22;32708;51.212;6.788;2023-11-19T16:24:59;12.50;99.90
48604;DHT22;32708;51.212;6.788;2023-11-19T16:27:26;12.40;99.90
48604;DHT22;32708;51.212;6.788;2023-11-19T16:29:52;12.30;99.90
48604;DHT22;32708;51.212;6.788;2023-11-19T16:32:19;12.30;99.90
48604;DHT22;32708;51.212;6.788;2023-11-19T16:34:54;12.30;99.90
48604;DHT22;32708;51.212;6.788;2023-11-19T16:38:06;12.20;99.90
48604;DHT22;32708;51.212;6.788;2023-11-19T16:40:50;12.20;99.90
48604;DHT22;32708;51.212;6.788;2023-11-19T16:43:43;12.00;99.90
48604;DHT22;32708;51.212;6.788;2023-11-19T16:46:16;12.30;99.90
48604;DHT22;32708;51.212;6.788;2023-11-19T16:48:58;12.50;99.90
48604;DHT22;32708;51.212;6.788;2023-11-19T16:51:50;12.40;99.90
48604;DHT22;32708;51.212;6.788;2023-11-19T16:54:57;12.50;99.90
48604;DHT22;32708;51.212;6.788;2023-11-19T16:57:52;12.40;99.90
48604;DHT22;32708;51.212;6.788;2023-11-19T17:00:20;12.40;99.90
48604;DHT22;32708;51.212;6.788;2023-11-19T17:02:49;12.50;99.90
48604;DHT22;32708;51.212;6.788;2023-11-19T17:05:16;12.40;99.90
48604;DHT22;32708;51.212;6.788;2023-11-19T17:07:49;12.40;99.90
48604;DHT22;32708;51.212;6.788;2023-11-19T17:10:16;12.40;99.90
48604;DHT22;32708;51.212;6.788;2023-11-19T17:15:50;12.40;99.90
48604;DHT22;32708;51.212;6.788;2023-11-19T17:18:17;12.40;99.90
48604;DHT22;32708;51.212;6.788;2023-11-19T17:20:44;12.40;99.90
48604;DHT22;32708;51.212;6.788;2023-11-19T17:23:11;12.40;99.90
48604;DHT22;32708;51.212;6.788;2023-11-19T17:25:37;12.50;99.90